M I D A S
Marine Information and Data Acquisition System
Tripno 134 of the Zeeleeuw from 2001-06-05 10:00:00 to 2001-06-05 18:00:00
Back to CruiseResearch ActivitiesStationsMapUnderway DataData graphs

EquipmentUnitsComment
TimeDGPSUTC
LatitudeDGPSDM.mWGS84
LongitudeDGPSDM.mWGS84
TemperatureSBE03/SBE38deg celciusITS90
ConductivitySBE21S/mITS90
SalinitySBE21 Practical Salinity Units
ChlorophylAChelsea fluorimeterg/lCalibrated in Aceton
Missing or incorrect values are displayed as -999
Sea surface data collected by the RV Zeeleeuw from 2001-06-05 10:00:00 to 2001-06-05 18:00:00
Time Latitude Longitude Temperature Conductivity Salinity ChlorophylA
2001-06-05 10:01:03 51°8.697 2°34.473 -999 -999 -999  
2001-06-05 10:02:03 51°8.738 2°34.606 -999 -999 -999  
2001-06-05 10:03:03 51°8.767 2°34.702 -999 -999 -999  
2001-06-05 10:04:03 51°8.797 2°34.776 -999 -999 -999  
2001-06-05 10:05:03 51°8.825 2°34.839 -999 -999 -999  
2001-06-05 10:06:03 51°8.849 2°34.897 -999 -999 -999  
2001-06-05 10:07:03 51°8.872 2°34.951 -999 -999 -999  
2001-06-05 10:08:03 51°8.895 2°35.002 -999 -999 -999  
2001-06-05 10:09:03 51°8.929 2°35.051 -999 -999 -999  
2001-06-05 10:10:03 51°8.974 2°35.055 -999 -999 -999  
2001-06-05 10:11:03 51°8.99 2°35.018 -999 -999 -999  
2001-06-05 10:12:03 51°8.971 2°34.981 -999 -999 -999  
2001-06-05 10:13:03 51°8.956 2°34.928 -999 -999 -999  
2001-06-05 10:14:03 51°8.954 2°34.887 -999 -999 -999  
2001-06-05 10:15:03 51°8.953 2°34.862 -999 -999 -999  
2001-06-05 10:16:03 51°8.95 2°34.851 -999 -999 -999  
2001-06-05 10:17:03 51°8.946 2°34.851 -999 -999 -999  
2001-06-05 10:18:03 51°8.942 2°34.86 -999 -999 -999  
2001-06-05 10:19:03 51°8.939 2°34.875 -999 -999 -999  
2001-06-05 10:20:03 51°8.937 2°34.894 -999 -999 -999  
2001-06-05 10:21:03 51°8.936 2°34.916 -999 -999 -999  
2001-06-05 10:22:03 51°8.936 2°34.94 -999 -999 -999  
2001-06-05 10:23:03 51°8.938 2°34.966 -999 -999 -999  
2001-06-05 10:24:03 51°8.941 2°34.993 -999 -999 -999  
2001-06-05 10:25:03 51°8.945 2°35.02 -999 -999 -999  
2001-06-05 10:26:03 51°8.95 2°35.049 -999 -999 -999  
2001-06-05 10:27:03 51°8.957 2°35.079 -999 -999 -999  
2001-06-05 10:28:03 51°8.964 2°35.109 -999 -999 -999  
2001-06-05 10:29:03 51°8.971 2°35.139 -999 -999 -999  
2001-06-05 10:30:03 51°8.978 2°35.17 -999 -999 -999  
2001-06-05 10:31:03 51°8.987 2°35.201 -999 -999 -999  
2001-06-05 10:32:03 51°8.996 2°35.232 -999 -999 -999  
2001-06-05 10:33:03 51°9.005 2°35.263 -999 -999 -999  
2001-06-05 10:34:03 51°9.014 2°35.296 -999 -999 -999  
2001-06-05 10:35:03 51°9.023 2°35.327 -999 -999 -999  
2001-06-05 10:36:03 51°9.032 2°35.359 -999 -999 -999  
2001-06-05 10:37:03 51°9.042 2°35.391 -999 -999 -999  
2001-06-05 10:38:03 51°9.052 2°35.423 -999 -999 -999  
2001-06-05 10:39:03 51°9.061 2°35.455 -999 -999 -999  
2001-06-05 10:40:03 51°9.072 2°35.488 -999 -999 -999  
2001-06-05 10:41:03 51°9.082 2°35.521 -999 -999 -999  
2001-06-05 10:42:03 51°9.092 2°35.554 -999 -999 -999  
2001-06-05 10:43:03 51°9.102 2°35.588 -999 -999 -999  
2001-06-05 10:44:03 51°9.112 2°35.622 -999 -999 -999  
2001-06-05 10:45:03 51°9.122 2°35.657 -999 -999 -999  
2001-06-05 10:46:03 51°9.131 2°35.693 -999 -999 -999  
2001-06-05 10:47:03 51°9.14 2°35.729 -999 -999 -999  
2001-06-05 10:48:03 51°9.149 2°35.766 -999 -999 -999  
2001-06-05 10:49:03 51°9.159 2°35.803 -999 -999 -999  
2001-06-05 10:50:03 51°9.168 2°35.84 -999 -999 -999  
2001-06-05 10:51:03 51°9.178 2°35.878 -999 -999 -999  
2001-06-05 10:52:03 51°9.188 2°35.916 -999 -999 -999  
2001-06-05 10:53:03 51°9.198 2°35.954 -999 -999 -999  
2001-06-05 10:54:04 51°9.208 2°35.994 -999 -999 -999  
2001-06-05 10:55:03 51°9.218 2°36.031 -999 -999 -999  
2001-06-05 10:56:03 51°9.228 2°36.071 -999 -999 -999  
2001-06-05 10:57:03 51°9.239 2°36.11 -999 -999 -999  
2001-06-05 10:58:03 51°9.249 2°36.149 -999 -999 -999  
2001-06-05 10:59:03 51°9.259 2°36.189 -999 -999 -999  
2001-06-05 11:00:03 51°9.269 2°36.23 -999 -999 -999  
2001-06-05 11:01:04 51°9.279 2°36.272 -999 -999 -999  
2001-06-05 11:02:03 51°9.289 2°36.312 -999 -999 -999  
2001-06-05 11:03:03 51°9.298 2°36.354 -999 -999 -999  
2001-06-05 11:04:03 51°9.307 2°36.395 -999 -999 -999  
2001-06-05 11:05:03 51°9.316 2°36.438 -999 -999 -999  
2001-06-05 11:06:04 51°9.326 2°36.48 -999 -999 -999  
2001-06-05 11:07:03 51°9.334 2°36.522 -999 -999 -999  
2001-06-05 11:08:03 51°9.344 2°36.566 -999 -999 -999  
2001-06-05 11:09:03 51°9.353 2°36.609 -999 -999 -999  
2001-06-05 11:10:03 51°9.362 2°36.653 -999 -999 -999  
2001-06-05 11:11:03 51°9.372 2°36.697 -999 -999 -999  
2001-06-05 11:12:03 51°9.382 2°36.741 -999 -999 -999  
2001-06-05 11:13:03 51°9.391 2°36.786 -999 -999 -999  
2001-06-05 11:14:03 51°9.4 2°36.831 -999 -999 -999  
2001-06-05 11:15:03 51°9.409 2°36.876 -999 -999 -999  
2001-06-05 11:16:03 51°9.419 2°36.882 -999 -999 -999  
2001-06-05 11:17:03 51°9.553 2°36.864 -999 -999 -999  
2001-06-05 11:18:03 51°9.698 2°37.155 -999 -999 -999  
2001-06-05 11:19:03 51°9.817 2°37.499 -999 -999 -999  
2001-06-05 11:20:03 51°9.93 2°37.851 -999 -999 -999  
2001-06-05 11:21:03 51°10.022 2°38.217 -999 -999 -999  
2001-06-05 11:22:03 51°10.118 2°38.584 -999 -999 -999  
2001-06-05 11:23:03 51°10.189 2°38.967 -999 -999 -999  
2001-06-05 11:24:03 51°10.274 2°39.342 -999 -999 -999  
2001-06-05 11:25:03 51°10.371 2°39.707 -999 -999 -999  
2001-06-05 11:26:03 51°10.467 2°40.071 -999 -999 -999  
2001-06-05 11:27:03 51°10.547 2°40.444 -999 -999 -999  
2001-06-05 11:28:03 51°10.626 2°40.816 -999 -999 -999  
2001-06-05 11:29:03 51°10.693 2°41.191 -999 -999 -999  
2001-06-05 11:30:04 51°10.767 2°41.57 -999 -999 -999  
2001-06-05 11:31:03 51°10.862 2°41.923 -999 -999 -999  
2001-06-05 11:32:04 51°10.939 2°42.3 -999 -999 -999  
2001-06-05 11:33:03 51°11.02 2°42.662 -999 -999 -999  
2001-06-05 11:34:03 51°11.084 2°43.038 -999 -999 -999  
2001-06-05 11:35:04 51°11.174 2°43.411 -999 -999 -999  
2001-06-05 11:36:03 51°11.249 2°43.778 -999 -999 -999  
2001-06-05 11:37:04 51°11.326 2°44.156 -999 -999 -999  
2001-06-05 11:38:03 51°11.399 2°44.524 -999 -999 -999  
2001-06-05 11:39:03 51°11.478 2°44.892 -999 -999 -999  
2001-06-05 11:40:03 51°11.556 2°45.262 -999 -999 -999  
2001-06-05 11:41:03 51°11.62 2°45.638 -999 -999 -999  
2001-06-05 11:42:04 51°11.707 2°46.011 -999 -999 -999  
2001-06-05 11:43:03 51°11.796 2°46.368 -999 -999 -999  
2001-06-05 11:44:03 51°11.876 2°46.735 -999 -999 -999  
2001-06-05 11:45:04 51°11.958 2°47.112 -999 -999 -999  
2001-06-05 11:46:03 51°12.048 2°47.474 -999 -999 -999  
2001-06-05 11:47:03 51°12.146 2°47.839 -999 -999 -999  
2001-06-05 11:48:04 51°12.246 2°48.206 -999 -999 -999  
2001-06-05 11:49:03 51°12.359 2°48.547 -999 -999 -999  
2001-06-05 11:50:03 51°12.481 2°48.888 -999 -999 -999  
2001-06-05 11:51:03 51°12.597 2°49.229 -999 -999 -999  
2001-06-05 11:52:03 51°12.711 2°49.567 -999 -999 -999  
2001-06-05 11:53:03 51°12.826 2°49.907 -999 -999 -999  
2001-06-05 11:54:03 51°12.941 2°50.249 -999 -999 -999  
2001-06-05 11:55:03 51°13.057 2°50.594 -999 -999 -999  
2001-06-05 11:56:04 51°13.186 2°50.939 -999 -999 -999  
2001-06-05 11:57:03 51°13.32 2°51.264 -999 -999 -999  
2001-06-05 11:58:03 51°13.459 2°51.595 -999 -999 -999  
2001-06-05 11:59:04 51°13.589 2°51.938 -999 -999 -999  
2001-06-05 12:00:03 51°13.727 2°52.258 -999 -999 -999  
2001-06-05 12:01:03 51°13.857 2°52.589 -999 -999 -999  
2001-06-05 12:02:03 51°13.953 2°52.938 -999 -999 -999  
2001-06-05 12:03:04 51°14.05 2°53.299 -999 -999 -999  
2001-06-05 12:04:03 51°14.142 2°53.638 -999 -999 -999  
2001-06-05 12:05:03 51°14.235 2°53.986 -999 -999 -999  
2001-06-05 12:06:04 51°14.347 2°54.338 -999 -999 -999  
2001-06-05 12:07:04 51°14.531 2°54.593 -999 -999 -999  
2001-06-05 12:08:03 51°14.734 2°54.773 -999 -999 -999  
2001-06-05 12:09:04 51°14.947 2°54.964 -999 -999 -999  
2001-06-05 12:10:03 51°15.159 2°55.148 -999 -999 -999  
2001-06-05 12:11:03 51°15.385 2°55.289 -999 -999 -999  
2001-06-05 12:12:04 51°15.572 2°55.543 -999 -999 -999  
2001-06-05 12:13:03 51°15.73 2°55.829 -999 -999 -999  
2001-06-05 12:14:04 51°15.867 2°56.164 -999 -999 -999  
2001-06-05 12:15:03 51°15.999 2°56.488 -999 -999 -999  
2001-06-05 12:16:03 51°16.134 2°56.819 -999 -999 -999  
2001-06-05 12:17:03 51°16.279 2°57.141 -999 -999 -999  
2001-06-05 12:18:03 51°16.43 2°57.453 -999 -999 -999  
2001-06-05 12:19:04 51°16.583 2°57.772 -999 -999 -999  
2001-06-05 12:20:03 51°16.721 2°58.093 -999 -999 -999  
2001-06-05 12:21:03 51°16.871 2°58.402 -999 -999 -999  
2001-06-05 12:22:04 51°17.022 2°58.721 -999 -999 -999  
2001-06-05 12:23:03 51°17.176 2°59.027 -999 -999 -999  
2001-06-05 12:24:04 51°17.334 2°59.347 -999 -999 -999  
2001-06-05 12:25:03 51°17.486 2°59.658 -999 -999 -999  
2001-06-05 12:26:04 51°17.636 2°59.985 -999 -999 -999  
2001-06-05 12:27:03 51°17.777 3°0.3 -999 -999 -999  
2001-06-05 12:28:04 51°17.926 3°0.616 -999 -999 -999  
2001-06-05 12:29:04 51°18.07 3°0.929 -999 -999 -999  
2001-06-05 12:30:03 51°18.212 3°1.236 -999 -999 -999  
2001-06-05 12:31:03 51°18.347 3°1.558 -999 -999 -999  
2001-06-05 12:32:04 51°18.496 3°1.874 -999 -999 -999  
2001-06-05 12:33:03 51°18.626 3°2.195 -999 -999 -999  
2001-06-05 12:34:03 51°18.758 3°2.524 -999 -999 -999  
2001-06-05 12:35:04 51°18.892 3°2.86 -999 -999 -999  
2001-06-05 12:36:04 51°19.029 3°3.184 -999 -999 -999  
2001-06-05 12:37:03 51°19.159 3°3.508 -999 -999 -999  
2001-06-05 12:38:03 51°19.279 3°3.846 -999 -999 -999  
2001-06-05 12:39:04 51°19.346 3°4.224 -999 -999 -999  
2001-06-05 12:40:03 51°19.428 3°4.584 -999 -999 -999  
2001-06-05 12:41:03 51°19.566 3°4.911 -999 -999 -999  
2001-06-05 12:42:04 51°19.71 3°5.238 -999 -999 -999  
2001-06-05 12:43:04 51°19.866 3°5.539 -999 -999 -999  
2001-06-05 12:44:04 51°20.024 3°5.835 -999 -999 -999  
2001-06-05 12:45:03 51°20.179 3°6.127 -999 -999 -999  
2001-06-05 12:46:04 51°20.342 3°6.43 -999 -999 -999  
2001-06-05 12:47:04 51°20.507 3°6.723 -999 -999 -999  
2001-06-05 12:48:03 51°20.665 3°7.015 -999 -999 -999  
2001-06-05 12:49:04 51°20.824 3°7.318 -999 -999 -999  
2001-06-05 12:50:03 51°20.975 3°7.617 -999 -999 -999  
2001-06-05 12:51:03 51°21.135 3°7.914 -999 -999 -999  
2001-06-05 12:52:04 51°21.299 3°8.21 -999 -999 -999  
2001-06-05 12:53:03 51°21.455 3°8.502 -999 -999 -999  
2001-06-05 12:54:03 51°21.613 3°8.801 -999 -999 -999  
2001-06-05 12:55:04 51°21.774 3°9.105 -999 -999 -999  
2001-06-05 12:56:04 51°21.898 3°9.441 -999 -999 -999  
2001-06-05 12:57:04 51°21.992 3°9.806 -999 -999 -999  
2001-06-05 12:58:04 51°22.079 3°10.176 -999 -999 -999  
2001-06-05 12:59:04 51°22.178 3°10.535 -999 -999 -999  
2001-06-05 13:00:03 51°22.259 3°10.898 -999 -999 -999  
2001-06-05 13:01:03 51°22.332 3°11.277 -999 -999 -999  
2001-06-05 13:02:03 51°22.395 3°11.663 -999 -999 -999  
2001-06-05 13:03:03 51°22.453 3°12.055 -999 -999 -999  
2001-06-05 13:04:04 51°22.504 3°12.454 -999 -999 -999  
2001-06-05 13:05:03 51°22.552 3°12.834 -999 -999 -999  
2001-06-05 13:06:03 51°22.604 3°13.219 -999 -999 -999  
2001-06-05 13:07:04 51°22.653 3°13.607 -999 -999 -999  
2001-06-05 13:08:04 51°22.693 3°13.99 -999 -999 -999  
2001-06-05 13:09:04 51°22.744 3°14.367 -999 -999 -999  
2001-06-05 13:10:03 51°22.79 3°14.74 -999 -999 -999  
2001-06-05 13:11:04 51°22.84 3°15.123 -999 -999 -999  
2001-06-05 13:12:03 51°22.874 3°15.498 -999 -999 -999  
2001-06-05 13:13:03 51°22.906 3°15.877 -999 -999 -999  
2001-06-05 13:14:04 51°22.949 3°16.258 -999 -999 -999  
2001-06-05 13:15:04 51°22.982 3°16.635 -999 -999 -999  
2001-06-05 13:16:04 51°23.012 3°17.011 -999 -999 -999  
2001-06-05 13:17:04 51°22.946 3°17.364 -999 -999 -999  
2001-06-05 13:18:04 51°22.836 3°17.683 -999 -999 -999  
2001-06-05 13:19:03 51°22.718 3°17.986 -999 -999 -999  
2001-06-05 13:20:04 51°22.588 3°18.285 -999 -999 -999  
2001-06-05 13:21:04 51°22.439 3°18.462 -999 -999 -999  
2001-06-05 13:22:03 51°22.366 3°18.468 -999 -999 -999  
2001-06-05 13:23:04 51°22.356 3°18.473 -999 -999 -999  
2001-06-05 13:24:04 51°22.353 3°18.489 -999 -999 -999  
2001-06-05 13:25:04 51°22.351 3°18.505 -999 -999 -999  
2001-06-05 13:26:04 51°22.349 3°18.522 -999 -999 -999  
2001-06-05 13:27:04 51°22.347 3°18.539 -999 -999 -999  
2001-06-05 13:28:04 51°22.345 3°18.558 -999 -999 -999  
2001-06-05 13:29:03 51°22.344 3°18.577 -999 -999 -999  
2001-06-05 13:30:04 51°22.342 3°18.598 -999 -999 -999  
2001-06-05 13:31:04 51°22.339 3°18.617 -999 -999 -999  
2001-06-05 13:32:04 51°22.328 3°18.612 -999 -999 -999  
2001-06-05 13:33:04 51°22.309 3°18.612 -999 -999 -999  
2001-06-05 13:34:04 51°22.285 3°18.633 -999 -999 -999  
2001-06-05 13:35:03 51°22.264 3°18.678 -999 -999 -999  
2001-06-05 13:36:03 51°22.252 3°18.74 -999 -999 -999  
2001-06-05 13:37:04 51°22.253 3°18.812 -999 -999 -999  
2001-06-05 13:38:04 51°22.266 3°18.883 -999 -999 -999  
2001-06-05 13:39:03 51°22.284 3°18.953 -999 -999 -999  
2001-06-05 13:40:04 51°22.304 3°19.022 -999 -999 -999  
2001-06-05 13:41:04 51°22.323 3°19.083 -999 -999 -999  
2001-06-05 13:42:04 51°22.339 3°19.133 -999 -999 -999  
2001-06-05 13:43:04 51°22.35 3°19.178 -999 -999 -999  
2001-06-05 13:44:04 51°22.361 3°19.223 -999 -999 -999  
2001-06-05 13:45:04 51°22.436 3°19.347 -999 -999 -999  
2001-06-05 13:46:03 51°22.625 3°19.46 -999 -999 -999  
2001-06-05 13:47:04 51°22.832 3°19.569 -999 -999 -999  
2001-06-05 13:48:04 51°23.041 3°19.659 -999 -999 -999  
2001-06-05 13:49:04 51°23.231 3°19.563 -999 -999 -999  
2001-06-05 13:50:04 51°23.255 3°19.253 -999 -999 -999  
2001-06-05 13:51:04 51°23.218 3°18.925 -999 -999 -999  
2001-06-05 13:52:03 51°23.186 3°18.602 -999 -999 -999  
2001-06-05 13:53:03 51°23.157 3°18.272 -999 -999 -999  
2001-06-05 13:54:04 51°23.121 3°17.942 -999 -999 -999  
2001-06-05 13:55:04 51°23.089 3°17.616 -999 -999 -999  
2001-06-05 13:56:03 51°23.058 3°17.296 -999 -999 -999  
2001-06-05 13:57:04 51°23.021 3°16.968 -999 -999 -999  
2001-06-05 13:58:04 51°22.984 3°16.644 -999 -999 -999  
2001-06-05 13:59:04 51°22.948 3°16.32 -999 -999 -999  
2001-06-05 14:00:04 51°22.907 3°15.998 -999 -999 -999  
2001-06-05 14:01:04 51°22.871 3°15.675 -999 -999 -999  
2001-06-05 14:02:03 51°22.832 3°15.358 -999 -999 -999  
2001-06-05 14:03:04 51°22.789 3°15.032 -999 -999 -999  
2001-06-05 14:04:04 51°22.752 3°14.711 -999 -999 -999  
2001-06-05 14:05:03 51°22.713 3°14.399 -999 -999 -999  
2001-06-05 14:06:04 51°22.664 3°14.08 -999 -999 -999  
2001-06-05 14:07:04 51°22.622 3°13.769 -999 -999 -999  
2001-06-05 14:08:04 51°22.58 3°13.46 -999 -999 -999  
2001-06-05 14:09:04 51°22.532 3°13.154 -999 -999 -999  
2001-06-05 14:10:04 51°22.495 3°12.844 -999 -999 -999  
2001-06-05 14:11:04 51°22.469 3°12.534 -999 -999 -999  
2001-06-05 14:12:03 51°22.456 3°12.228 -999 -999 -999  
2001-06-05 14:13:04 51°22.443 3°11.907 -999 -999 -999  
2001-06-05 14:14:04 51°22.423 3°11.588 -999 -999 -999  
2001-06-05 14:15:04 51°22.405 3°11.267 -999 -999 -999  
2001-06-05 14:16:04 51°22.391 3°10.946 -999 -999 -999  
2001-06-05 14:17:03 51°22.361 3°10.632 -999 -999 -999  
2001-06-05 14:18:03 51°22.331 3°10.313 -999 -999 -999  
2001-06-05 14:19:03 51°22.302 3°9.993 -999 -999 -999  
2001-06-05 14:20:04 51°22.257 3°9.672 -999 -999 -999  
2001-06-05 14:21:04 51°22.231 3°9.362 -999 -999 -999  
2001-06-05 14:22:03 51°22.265 3°9.145 -999 -999 -999  
2001-06-05 14:23:04 51°22.262 3°9.038 -999 -999 -999  
2001-06-05 14:24:04 51°22.249 3°9.007 -999 -999 -999  
2001-06-05 14:25:04 51°22.249 3°9.028 -999 -999 -999  
2001-06-05 14:26:04 51°22.239 3°9.032 -999 -999 -999  
2001-06-05 14:27:04 51°22.178 3°8.955 -999 -999 -999  
2001-06-05 14:28:04 51°22.059 3°8.843 -999 -999 -999  
2001-06-05 14:29:03 51°21.907 3°8.659 -999 -999 -999  
2001-06-05 14:30:04 51°21.742 3°8.463 -999 -999 -999  
2001-06-05 14:31:04 51°21.579 3°8.276 -999 -999 -999  
2001-06-05 14:32:04 51°21.413 3°8.089 -999 -999 -999  
2001-06-05 14:33:04 51°21.253 3°7.892 -999 -999 -999  
2001-06-05 14:34:04 51°21.1 3°7.679 -999 -999 -999  
2001-06-05 14:35:04 51°20.955 3°7.454 -999 -999 -999  
2001-06-05 14:36:04 51°20.794 3°7.258 -999 -999 -999  
2001-06-05 14:37:03 51°20.636 3°7.068 -999 -999 -999  
2001-06-05 14:38:04 51°20.476 3°6.862 -999 -999 -999  
2001-06-05 14:39:04 51°20.315 3°6.664 -999 -999 -999  
2001-06-05 14:40:04 51°20.152 3°6.473 -999 -999 -999  
2001-06-05 14:41:04 51°19.996 3°6.268 -999 -999 -999  
2001-06-05 14:42:04 51°19.862 3°6.029 -999 -999 -999  
2001-06-05 14:43:04 51°19.736 3°5.78 -999 -999 -999  
2001-06-05 14:44:03 51°19.631 3°5.508 -999 -999 -999  
2001-06-05 14:45:04 51°19.518 3°5.233 -999 -999 -999  
2001-06-05 14:46:04 51°19.397 3°4.973 -999 -999 -999  
2001-06-05 14:47:03 51°19.282 3°4.71 -999 -999 -999  
2001-06-05 14:48:04 51°19.173 3°4.426 -999 -999 -999  
2001-06-05 14:49:04 51°19.055 3°4.156 -999 -999 -999  
2001-06-05 14:50:04 51°18.942 3°3.881 -999 -999 -999  
2001-06-05 14:51:04 51°18.829 3°3.603 -999 -999 -999  
2001-06-05 14:52:04 51°18.716 3°3.327 -999 -999 -999  
2001-06-05 14:53:04 51°18.594 3°3.06 -999 -999 -999  
2001-06-05 14:54:03 51°18.476 3°2.796 -999 -999 -999  
2001-06-05 14:55:04 51°18.35 3°2.527 -999 -999 -999  
2001-06-05 14:56:04 51°18.232 3°2.254 -999 -999 -999  
2001-06-05 14:57:04 51°18.134 3°1.959 -999 -999 -999  
2001-06-05 14:58:04 51°18.04 3°1.66 -999 -999 -999  
2001-06-05 14:59:04 51°17.931 3°1.375 -999 -999 -999  
2001-06-05 15:00:03 51°17.826 3°1.091 -999 -999 -999  
2001-06-05 15:01:04 51°17.708 3°0.812 -999 -999 -999  
2001-06-05 15:02:04 51°17.603 3°0.524 -999 -999 -999  
2001-06-05 15:03:03 51°17.499 3°0.236 -999 -999 -999  
2001-06-05 15:04:04 51°17.388 2°59.94 -999 -999 -999  
2001-06-05 15:05:04 51°17.28 2°59.647 -999 -999 -999  
2001-06-05 15:06:04 51°17.172 2°59.354 -999 -999 -999  
2001-06-05 15:07:04 51°17.058 2°59.069 -999 -999 -999  
2001-06-05 15:08:04 51°16.943 2°58.791 -999 -999 -999  
2001-06-05 15:09:04 51°16.831 2°58.511 -999 -999 -999  
2001-06-05 15:10:03 51°16.723 2°58.23 -999 -999 -999  
2001-06-05 15:11:04 51°16.592 2°57.958 -999 -999 -999  
2001-06-05 15:12:04 51°16.461 2°57.691 -999 -999 -999  
2001-06-05 15:13:04 51°16.332 2°57.42 -999 -999 -999  
2001-06-05 15:14:04 51°16.205 2°57.148 -999 -999 -999  
2001-06-05 15:15:04 51°16.082 2°56.868 -999 -999 -999  
2001-06-05 15:16:04 51°15.96 2°56.586 -999 -999 -999  
2001-06-05 15:17:03 51°15.837 2°56.312 -999 -999 -999  
2001-06-05 15:18:04 51°15.715 2°56.024 -999 -999 -999  
2001-06-05 15:19:04 51°15.601 2°55.735 -999 -999 -999  
2001-06-05 15:20:03 51°15.494 2°55.497 -999 -999 -999  
2001-06-05 15:21:04 51°15.419 2°55.354 -999 -999 -999  
2001-06-05 15:22:04 51°15.369 2°55.238 -999 -999 -999  
2001-06-05 15:23:04 51°15.329 2°55.15 -999 -999 -999  
2001-06-05 15:24:04 51°15.286 2°55.085 -999 -999 -999  
2001-06-05 15:25:04 51°15.242 2°55.036 -999 -999 -999  
2001-06-05 15:26:04 51°15.199 2°54.991 -999 -999 -999  
2001-06-05 15:27:03 51°15.161 2°54.94 -999 -999 -999  
2001-06-05 15:28:04 51°15.122 2°54.888 -999 -999 -999  
2001-06-05 15:29:04 51°15.082 2°54.842 -999 -999 -999  
2001-06-05 15:30:04 51°15.041 2°54.796 -999 -999 -999  
2001-06-05 15:31:04 51°14.999 2°54.75 -999 -999 -999  
2001-06-05 15:32:04 51°14.957 2°54.706 -999 -999 -999  
2001-06-05 15:33:04 51°14.915 2°54.662 -999 -999 -999  
2001-06-05 15:34:03 51°14.883 2°54.627 -999 -999 -999  
2001-06-05 15:35:04 51°14.917 2°54.647 -999 -999 -999  
2001-06-05 15:36:04 51°14.946 2°54.661 -999 -999 -999  
2001-06-05 15:37:04 51°14.96 2°54.662 -999 -999 -999  
2001-06-05 15:38:04 51°14.895 2°54.618 -999 -999 -999  
2001-06-05 15:39:03 51°14.767 2°54.551 -999 -999 -999  
2001-06-05 15:40:04 51°14.617 2°54.533 -999 -999 -999  
2001-06-05 15:41:03 51°14.517 2°54.664 -999 -999 -999  
2001-06-05 15:42:04 51°14.434 2°54.847 -999 -999 -999  
2001-06-05 15:43:04 51°14.356 2°55.032 -999 -999 -999  
2001-06-05 15:44:03 51°14.281 2°55.189 -999 -999 -999  
2001-06-05 15:45:03 51°14.222 2°55.299 -999 -999 -999  
2001-06-05 15:46:03 51°14.158 2°55.379 -999 -999 -999  
2001-06-05 15:47:04 51°14.063 2°55.453 -999 -999 -999  
2001-06-05 15:48:05 51°13.96 2°55.525 -999 -999 -999  
2001-06-05 15:49:04 51°13.858 2°55.601 -999 -999 -999  
2001-06-05 15:50:04 51°13.78 2°55.673 -999 -999 -999  
2001-06-05 15:51:08 51°13.733 2°55.744 -999 -999 -999  
2001-06-05 15:52:09 51°13.707 2°55.805 -999 -999 -999  
2001-06-05 15:53:08 51°13.695 2°55.853 -999 -999 -999  
2001-06-05 15:54:09 51°13.686 2°55.897 -999 -999 -999  
2001-06-05 15:55:08 51°13.679 2°55.919 -999 -999 -999  
2001-06-05 15:56:09 51°13.676 2°55.925 -999 -999 -999  
2001-06-05 15:57:08 51°13.677 2°55.926 -999 -999 -999  
2001-06-05 15:58:09 51°13.677 2°55.925 -999 -999 -999  
2001-06-05 15:59:08 51°13.677 2°55.926 -999 -999 -999  
2001-06-05 16:00:09 51°13.677 2°55.925 -999 -999 -999  
2001-06-05 16:01:08 51°13.677 2°55.925 -999 -999 -999  
2001-06-05 16:02:09 51°13.677 2°55.925 -999 -999 -999  
2001-06-05 16:03:09 51°13.677 2°55.925 -999 -999 -999  
2001-06-05 16:04:09 51°13.677 2°55.924 -999 -999 -999  
2001-06-05 16:05:09 51°13.677 2°55.924 -999 -999 -999